This is the latest recevied weather packets stored in our database for station/object N1OTX. If no packets are shown the sender has not sent any weather packets the latest 10 day(s).
| Time | Temp. | Humidity | Pressure | Rain* | Wind** | Luminosity | Snow |
|---|---|---|---|---|---|---|---|
| 1777766430 | 10.56° C | 79% | 1010.2 hPa | 0 mm | - | 0 W/m² | - |
| 1777765230 | 11.11° C | 77% | 1010 hPa | 0 mm | - | 5 W/m² | - |
| 1777764329 | 11.11° C | 77% | 1010 hPa | 0 mm | - | 16 W/m² | - |
| 1777762531 | 11.11° C | 76% | 1010 hPa | 0 mm | - | 12 W/m² | - |
| 1777761030 | 11.11° C | 74% | 1010 hPa | 0 mm | - | 25 W/m² | - |
| 1777760430 | 11.67° C | 74% | 1010.1 hPa | 0 mm | - | 29 W/m² | - |
| 1777760130 | 11.67° C | 73% | 1010.1 hPa | 0 mm | - | 33 W/m² | - |
| 1777758051 | 12.78° C | 66% | 1010 hPa | 0 mm | - | 19 W/m² | - |
| 1777753831 | 13.89° C | 58% | 1009.9 hPa | 0 mm | - | 372 W/m² | - |
| 1777752950 | 13.89° C | 57% | 1010 hPa | 0 mm | - | 342 W/m² | - |
| 1777752330 | 14.44° C | 57% | 1010 hPa | 0 mm | - | 479 W/m² | - |
| 1777751130 | 12.78° C | 65% | 1010.3 hPa | 0 mm | - | 531 W/m² | - |
| 1777749651 | 13.33° C | 65% | 1010.6 hPa | 0 mm | - | 365 W/m² | - |
| 1777745730 | 13.33° C | 57% | 1010.9 hPa | 0 mm | - | 282 W/m² | - |
| 1777744529 | 12.78° C | 54% | 1010.9 hPa | 0 mm | - | 180 W/m² | - |
| 1777742730 | 12.78° C | 60% | 1011 hPa | 0 mm | - | 154 W/m² | - |
| 1777742430 | 13.33° C | 61% | 1011.1 hPa | 0 mm | - | 114 W/m² | - |
| 1777738831 | 12.22° C | 77% | 1011.4 hPa | 0 mm | - | 153 W/m² | - |
| 1777737930 | 12.22° C | 75% | 1011.6 hPa | 0 mm | - | 169 W/m² | - |
| 1777737030 | 12.22° C | 75% | 1011.8 hPa | 0 mm | - | 172 W/m² | - |
| 1777736449 | 12.22° C | 75% | 1012 hPa | 0 mm | - | 177 W/m² | - |
| 1777734330 | 12.22° C | 79% | 1011.9 hPa | 0 mm | - | 437 W/m² | - |
| 1777733730 | 11.67° C | 82% | 1011.8 hPa | 0 mm | - | 723 W/m² | - |
| 1777732229 | 9.44° C | 87% | 1012.1 hPa | 0.51 mm | - | 261 W/m² | - |
| 1777731329 | 8.89° C | 88% | 1012.2 hPa | 0.76 mm | - | 190 W/m² | - |
* Rain latest hour (hover to see other rain measurements)
** Current wind speed in m/s (hover to see current wind gust speed)